Terminal Aerodrome Forecast
Issued by NWS

Home | Current Version | Previous Version | Text Only | Print | Product List | Glossary On
Versions: 1 2 3 4 5 6 7 8 9 10 11 12 13 14 15 16 17 18 19
000
FTUS41 KPBZ 291730
TAFDUJ
TAF
KDUJ 291730Z 2918/3018 26006KT P6SM SCT050 SCT250
     FM292200 24007KT P6SM BKN050
     FM300300 VRB03KT P6SM BKN100=

USA.gov is the U.S. government's official web portal to all federal, state and local government web resources and services.